Dante, VA (24237)

4:24 PM EDT on July 22, 2014 (GMT -0400)
Lonesome Pine (KLNP) Elev 2684 ft | 36.99 °N, 82.53 °W | Change Station

Current weather conditions updated 9 minutes ago

Partly Cloudy
Partly Cloudy
81 °F
Feels Like 82 °F
N
0
Wind Variable Wind from North

Tomorrow is forecast to be nearly the same temperature as today. Thunderstorms.

Today
High -- | Low -- °F
--% Chance of Precip.
Yesterday
High -- | Low -- °F
Precip. -- in
6:26 AM 8:44 PM
Waning Crescent, 15% visible
Pressure 30.21 in
Visibility 10.0 miles
Clouds Scattered Clouds 3700 ft
Heat Index 82 °F
Dew Point 63 °F
Humidity 54%
Rainfall 0.00 in
Snow Depth Not available.
UV 7 out of 12
Pollen 3.30 out of 12
Air Quality Not available.
Flu Activity Sporadic
METAR KLNP 222015Z AUTO 00000KT 10SM SCT037 27/17 A3021 RMK AO2

More Conditions Fewer Conditions

Pressure 30.21 in
Visibility 10.0 miles
Clouds Scattered Clouds 3700 ft
Heat Index 82 °F
Dew Point 63 °F
Humidity 54%
Rainfall 0.00 in
Snow Depth Not available.
UV 7 out of 12
Pollen 3.30 out of 12
Air Quality Not available.
Flu Activity Sporadic
METAR KLNP 222015Z AUTO 00000KT 10SM SCT037 27/17 A3021 RMK AO2

More Conditions Fewer Conditions

10-Day Weather Forecast

Almanac

Astronomy

Jul. 22, 2014 Rise Set
Actual Time 6:26 AM EDT 8:44 PM EDT
Civil Twilight 5:56 AM EDT 9:13 PM EDT
Nautical Twilight 5:20 AM EDT 9:50 PM EDT
Astronomical Twilight 4:40 AM EDT 10:29 PM EDT
Moon 2:57 AM EDT 5:21 PM EDT
Length of Visible Light 15h 17m
Length of Day
14h 18m
Tomorrow will be 1m 29s shorter.
Waning Crescent, 15% of the Moon is Illuminated
Today
Waning Crescent
Jul 26
New
Aug 3
First Quarter
Aug 10
Full
Aug 17
Last Quarter

Today's Extremes

State Highs State Lows

Community

WunderPhotos

Upload Photos

1,736,345 photos uploaded!

Nearby

Snow Depth

Station Depth Elevation
No new snow has been reported.

Earthquake Activity

City Distance Mag. Time & Date
No recent earthquake activity has been reported nearby.
Minimum magnitude displayed is 2.5.

Coastal Water Temperatures

Place Temperature
No Stations Reporting

Nearby Weather Stations

Station Location Temp. Heat Index Dew Point Humidity Wind Precip. Elev Updated Type
Ramey Flats, Clintwood, VA 86.6 °F 93 °F 72 °F 62% North  at  1.0 mph 0.00 in / hr 1795 ft 4:13 PM EDT Normal
My Side Of The Mountain, Lebanon, VA 82.1 °F 87 °F 71 °F 70% SSE  at  0.0 mph 0.00 in / hr 2480 ft 4:24 PM EDT Rapid Fire
RAWS WISE VA, Wise, VA 83 °F 84 °F 64 °F 53% WSW  at  5 mph 0.00 in / hr 2529 ft 3:11 PM EDT MADIS
RAWS PRAWS 12 KY, Jenkins, KY 86 °F 90 °F 68 °F 56% NNW  at  1 mph 0.00 in / hr 1974 ft 3:47 PM EDT MADIS
White's Mill, Abingdon, VA 80.8 °F 84 °F 70 °F 70% NE  at  1.0 mph 0.00 in / hr 2113 ft 4:20 PM EDT Normal

Show More Stations Show Fewer Stations